createdAt,value
2018-01-23T00:02:09.817Z,99665.41
2018-01-23T00:04:36.143Z,99672.64
2018-01-23T00:07:02.503Z,99677.95
2018-01-23T00:09:28.728Z,99681.38
2018-01-23T00:11:54.944Z,99679.36
2018-01-23T00:14:21.256Z,99687.14
2018-01-23T00:16:47.574Z,99678.66
2018-01-23T00:19:13.761Z,99686.31
2018-01-23T00:21:40.029Z,99686.58
2018-01-23T00:24:06.342Z,99688.21
2018-01-23T00:26:33.351Z,99690.19
2018-01-23T00:28:59.593Z,99692.64
2018-01-23T00:31:25.857Z,99699.27
2018-01-23T00:33:52.891Z,99706.18
2018-01-23T00:36:19.175Z,99706.14
2018-01-23T00:38:45.389Z,99712.28
2018-01-23T00:41:11.879Z,99717.72
2018-01-23T00:43:38.155Z,99715.77
2018-01-23T00:46:04.397Z,99720.89
2018-01-23T00:48:30.699Z,99717.15
2018-01-23T00:50:56.947Z,99729.19
2018-01-23T00:53:23.160Z,99738.27
2018-01-23T00:55:49.442Z,99729.84
2018-01-23T00:58:15.682Z,99734.03
2018-01-23T01:00:41.944Z,99744.54
2018-01-23T01:03:08.976Z,99747.90
2018-01-23T01:05:35.355Z,99747.22
2018-01-23T01:08:01.642Z,99754.02
2018-01-23T01:10:28.594Z,99753.38
2018-01-23T01:12:55.624Z,99759.47
2018-01-23T01:15:21.846Z,99764.01
2018-01-23T01:17:48.120Z,99767.25
2018-01-23T01:20:14.353Z,99773.45
2018-01-23T01:22:40.623Z,99775.80
2018-01-23T01:25:06.877Z,99781.33
2018-01-23T01:27:33.936Z,99788.00
2018-01-23T01:30:00.903Z,99791.92
2018-01-23T01:32:27.155Z,99789.42
2018-01-23T01:34:53.375Z,99797.13
2018-01-23T01:37:19.633Z,99802.86
2018-01-23T01:39:45.867Z,99801.48
2018-01-23T01:42:12.227Z,99803.14
2018-01-23T01:44:39.224Z,99800.05
2018-01-23T01:47:05.519Z,99799.85
2018-01-23T01:49:31.769Z,99803.40
2018-01-23T01:51:58.091Z,99806.97
2018-01-23T01:54:24.383Z,99814.88
2018-01-23T01:56:50.665Z,99815.20
2018-01-23T01:59:16.951Z,99825.17
2018-01-23T02:01:43.938Z,99828.27
2018-01-23T02:04:10.224Z,99835.11
2018-01-23T02:06:37.242Z,99834.14
2018-01-23T02:09:03.480Z,99838.31
2018-01-23T02:11:29.753Z,99841.28
2018-01-23T02:13:55.999Z,99845.16
2018-01-23T02:16:22.284Z,99853.38
2018-01-23T02:18:48.516Z,99858.60
2018-01-23T02:21:15.574Z,99871.11
2018-01-23T02:23:42.563Z,99869.08
2018-01-23T02:26:08.845Z,99883.83
2018-01-23T02:28:35.861Z,99886.07
2018-01-23T02:31:02.181Z,99887.13
2018-01-23T02:33:28.464Z,99889.31
2018-01-23T02:35:55.457Z,99891.97
2018-01-23T02:38:21.713Z,99902.53
2018-01-23T02:40:47.972Z,99900.21
2018-01-23T02:43:14.994Z,99904.95
2018-01-23T02:45:42.726Z,99910.36
2018-01-23T02:48:09.216Z,99907.86
2018-01-23T02:50:36.174Z,99912.39
2018-01-23T02:53:02.420Z,99904.25
2018-01-23T02:55:28.690Z,99917.02
2018-01-23T02:57:54.924Z,99910.39
2018-01-23T03:00:21.212Z,99910.10
2018-01-23T03:02:47.446Z,99909.11
2018-01-23T03:05:13.790Z,99914.08
2018-01-23T03:07:40.068Z,99915.89
2018-01-23T03:10:07.094Z,99927.66
2018-01-23T03:12:33.387Z,99933.34
2018-01-23T03:14:59.697Z,99940.09
2018-01-23T03:17:27.013Z,99941.56
2018-01-23T03:19:53.333Z,99944.25
2018-01-23T03:22:19.565Z,99941.94
2018-01-23T03:24:45.860Z,99949.36
2018-01-23T03:27:12.190Z,99948.89
2018-01-23T03:29:38.411Z,99953.64
2018-01-23T03:32:04.688Z,99959.94
2018-01-23T03:34:30.915Z,99967.30
2018-01-23T03:36:57.202Z,99970.77
2018-01-23T03:39:23.434Z,99968.28
2018-01-23T03:41:49.696Z,99962.50
2018-01-23T03:44:15.938Z,99968.91
2018-01-23T03:46:42.256Z,99986.48
2018-01-23T03:49:08.585Z,99985.84
2018-01-23T03:51:34.867Z,99993.37
2018-01-23T03:54:01.110Z,99992.79
2018-01-23T03:56:27.632Z,99991.95
2018-01-23T03:58:53.890Z,99995.52
2018-01-23T04:01:20.176Z,99988.28
2018-01-23T04:03:47.184Z,99995.23
2018-01-23T04:06:13.487Z,99998.84
2018-01-23T04:08:39.784Z,100005.95
2018-01-23T04:11:06.818Z,100007.62
2018-01-23T04:13:33.821Z,100011.20
2018-01-23T04:16:00.157Z,100007.09
2018-01-23T04:18:26.443Z,100012.73
2018-01-23T04:20:53.485Z,100026.00
2018-01-23T04:23:20.453Z,100025.23
2018-01-23T04:25:46.719Z,100027.05
2018-01-23T04:28:13.029Z,100031.19
2018-01-23T04:30:39.345Z,100040.95
2018-01-23T04:33:05.600Z,100040.78
2018-01-23T04:35:31.911Z,100033.66
2018-01-23T04:37:58.167Z,100036.27
2018-01-23T04:40:24.422Z,100048.31
2018-01-23T04:42:50.675Z,100051.45
2018-01-23T04:45:17.738Z,100055.48
2018-01-23T04:47:43.966Z,100068.24
2018-01-23T04:50:10.224Z,100071.07
2018-01-23T04:52:36.506Z,100077.08
2018-01-23T04:55:03.668Z,100083.80
2018-01-23T04:57:29.972Z,100090.47
2018-01-23T04:59:56.224Z,100088.20
2018-01-23T05:02:22.493Z,100095.27
2018-01-23T05:04:48.760Z,100102.75
2018-01-23T05:07:15.043Z,100096.16
2018-01-23T05:09:41.313Z,100099.13
2018-01-23T05:12:07.614Z,100103.45
2018-01-23T05:14:33.903Z,100102.97
2018-01-23T05:17:00.192Z,100109.55
2018-01-23T05:19:26.544Z,100111.58
2018-01-23T05:21:52.895Z,100114.13
2018-01-23T05:24:19.924Z,100118.20
2018-01-23T05:26:46.235Z,100122.50
2018-01-23T05:29:12.511Z,100129.73
2018-01-23T05:31:38.882Z,100131.77
2018-01-23T05:34:05.207Z,100130.31
2018-01-23T05:36:31.619Z,100130.94
2018-01-23T05:38:57.936Z,100130.23
2018-01-23T05:41:25.190Z,100144.34
2018-01-23T05:43:51.708Z,100145.67
2018-01-23T05:46:18.871Z,100155.09
2018-01-23T05:48:45.925Z,100156.91
2018-01-23T05:51:12.302Z,100160.13
2018-01-23T05:53:38.593Z,100166.30
2018-01-23T05:56:04.862Z,100181.41
2018-01-23T05:58:31.156Z,100177.80
2018-01-23T06:00:57.514Z,100179.45
2018-01-23T06:03:23.990Z,100178.25
2018-01-23T06:05:51.090Z,100178.63
2018-01-23T06:08:17.495Z,100188.42
2018-01-23T06:10:43.811Z,100197.64
2018-01-23T06:13:10.833Z,100197.86
2018-01-23T06:15:37.119Z,100190.19
2018-01-23T06:18:03.429Z,100207.14
2018-01-23T06:20:30.469Z,100208.24
2018-01-23T06:22:57.505Z,100210.13
2018-01-23T06:25:23.779Z,100214.88
2018-01-23T06:27:50.014Z,100209.91
2018-01-23T06:30:16.326Z,100220.74
2018-01-23T06:32:42.592Z,100227.69
2018-01-23T06:35:10.362Z,100226.73
2018-01-23T06:37:37.316Z,100222.19
2018-01-23T06:40:04.366Z,100238.11
2018-01-23T06:42:30.684Z,100247.09
2018-01-23T06:44:56.938Z,100251.31
2018-01-23T06:47:23.176Z,100252.60
2018-01-23T06:49:50.192Z,100260.70
2018-01-23T06:52:16.437Z,100259.58
2018-01-23T06:54:42.682Z,100267.81
2018-01-23T06:57:09.685Z,100262.63
2018-01-23T06:59:35.945Z,100269.88
2018-01-23T07:02:02.245Z,100267.05
2018-01-23T07:04:28.480Z,100270.39
2018-01-23T07:06:54.737Z,100288.07
2018-01-23T07:09:20.993Z,100294.66
2018-01-23T07:11:48.015Z,100299.02
2018-01-23T07:14:15.775Z,100297.92
2018-01-23T07:16:42.033Z,100297.95
2018-01-23T07:19:09.058Z,100300.25
2018-01-23T07:21:35.296Z,100307.49
2018-01-23T07:24:02.273Z,100314.83
2018-01-23T07:26:28.558Z,100322.19
2018-01-23T07:28:54.903Z,100324.18
2018-01-23T07:31:21.868Z,100328.22
2018-01-23T07:33:55.459Z,100336.67
2018-01-23T07:36:22.687Z,100335.87
2018-01-23T07:38:48.934Z,100339.91
2018-01-23T07:41:15.968Z,100347.03
2018-01-23T07:43:42.274Z,100342.45
2018-01-23T07:46:08.492Z,100350.22
2018-01-23T07:48:34.762Z,100348.53
2018-01-23T07:51:01.808Z,100361.77
2018-01-23T07:53:28.096Z,100356.06
2018-01-23T07:55:54.344Z,100361.17
2018-01-23T07:58:20.598Z,100374.88
2018-01-23T08:00:46.850Z,100370.77
2018-01-23T08:03:13.838Z,100372.97
2018-01-23T08:05:40.829Z,100384.30
2018-01-23T08:08:07.843Z,100393.57
2018-01-23T08:10:34.099Z,100395.42
2018-01-23T08:13:00.339Z,100396.41
2018-01-23T08:15:27.355Z,100394.17
2018-01-23T08:17:53.599Z,100398.12
2018-01-23T08:20:19.901Z,100401.89
2018-01-23T08:22:46.119Z,100410.95
2018-01-23T08:25:12.343Z,100417.62
2018-01-23T08:27:38.622Z,100415.00
2018-01-23T08:30:04.939Z,100413.84
2018-01-23T08:32:31.168Z,100422.71
2018-01-23T08:34:57.397Z,100427.91
2018-01-23T08:37:23.629Z,100425.45
2018-01-23T08:39:49.920Z,100428.41
2018-01-23T08:42:16.274Z,100428.77
2018-01-23T08:44:42.501Z,100435.30
2018-01-23T08:47:08.726Z,100435.03
2018-01-23T08:49:34.973Z,100436.94
2018-01-23T08:52:01.224Z,100430.85
2018-01-23T08:54:27.488Z,100438.06
2018-01-23T08:56:53.752Z,100436.91
2018-01-23T08:59:20.050Z,100437.84
2018-01-23T09:01:46.302Z,100446.11
2018-01-23T09:04:12.576Z,100450.58
2018-01-23T09:06:39.588Z,100448.32
2018-01-23T09:09:05.858Z,100450.16
2018-01-23T09:11:32.842Z,100462.08
2018-01-23T09:13:59.941Z,100457.63
2018-01-23T09:16:26.178Z,100459.39
2018-01-23T09:18:53.139Z,100461.93
2018-01-23T09:21:20.339Z,100469.03
2018-01-23T09:23:46.631Z,100472.81
2018-01-23T09:26:12.879Z,100474.67
2018-01-23T09:28:39.155Z,100482.84
2018-01-23T09:31:05.453Z,100484.09
2018-01-23T09:33:31.725Z,100487.31
2018-01-23T09:35:58.734Z,100491.14
2018-01-23T09:38:24.999Z,100494.38
2018-01-23T09:40:58.795Z,100500.48
2018-01-23T09:43:25.045Z,100500.85
2018-01-23T09:45:52.037Z,100502.91
2018-01-23T09:48:18.243Z,100510.59
2018-01-23T09:50:44.555Z,100515.05
2018-01-23T09:53:11.549Z,100522.02
2018-01-23T09:55:38.425Z,100521.22
2018-01-23T09:58:05.419Z,100526.97
2018-01-23T10:00:31.697Z,100530.41
2018-01-23T10:02:57.943Z,100535.31
2018-01-23T10:05:24.893Z,100537.00
2018-01-23T10:07:51.926Z,100539.07
2018-01-23T10:10:18.156Z,100545.87
2018-01-23T10:12:44.422Z,100545.22
2018-01-23T10:15:10.699Z,100560.13
2018-01-23T10:17:36.930Z,100559.97
2018-01-23T10:20:03.197Z,100556.20
2018-01-23T10:22:29.455Z,100564.23
2018-01-23T10:24:55.738Z,100561.78
2018-01-23T10:27:22.694Z,100569.39
2018-01-23T10:29:49.717Z,100566.19
2018-01-23T10:32:15.992Z,100565.36
2018-01-23T10:34:42.238Z,100573.74
2018-01-23T10:37:08.492Z,100570.27
2018-01-23T10:39:35.506Z,100564.39
2018-01-23T10:42:01.867Z,100570.93
2018-01-23T10:44:28.175Z,100570.48
2018-01-23T10:46:54.776Z,100574.11
2018-01-23T10:49:21.761Z,100575.56
2018-01-23T10:51:48.011Z,100572.95
2018-01-23T10:54:14.312Z,100577.95
2018-01-23T10:56:40.591Z,100580.42
2018-01-23T10:59:06.885Z,100588.34
2018-01-23T11:01:39.254Z,100593.20
2018-01-23T11:04:05.554Z,100586.47
2018-01-23T11:06:32.582Z,100588.91
2018-01-23T11:08:59.783Z,100589.95
2018-01-23T11:11:26.050Z,100577.53
2018-01-23T11:13:52.331Z,100575.47
2018-01-23T11:16:18.616Z,100583.91
2018-01-23T11:18:44.941Z,100592.90
2018-01-23T11:21:11.203Z,100588.59
2018-01-23T11:23:38.411Z,100594.74
2018-01-23T11:26:04.656Z,100602.09
2018-01-23T11:28:30.915Z,100607.08
2018-01-23T11:31:05.606Z,100601.15
2018-01-23T11:33:31.842Z,100595.53
2018-01-23T11:35:58.124Z,100596.33
2018-01-23T11:38:24.386Z,100594.97
2018-01-23T11:40:50.622Z,100592.58
2018-01-23T11:43:17.027Z,100598.66
2018-01-23T11:45:43.385Z,100590.89
2018-01-23T11:48:09.672Z,100597.50
2018-01-23T11:50:36.039Z,100595.70
2018-01-23T11:53:02.287Z,100600.20
2018-01-23T11:55:28.639Z,100596.84
2018-01-23T11:57:55.614Z,100596.41
2018-01-23T12:00:21.881Z,100587.11
2018-01-23T12:02:48.159Z,100597.49
2018-01-23T12:05:14.481Z,100592.66
2018-01-23T12:07:41.513Z,100599.09
2018-01-23T12:10:08.548Z,100596.06
2018-01-23T12:12:34.969Z,100593.17
2018-01-23T12:15:01.232Z,100587.97
2018-01-23T12:17:27.456Z,100587.30
2018-01-23T12:19:54.556Z,100591.95
2018-01-23T12:22:20.776Z,100587.96
2018-01-23T12:24:47.067Z,100587.29
2018-01-23T12:27:14.049Z,100585.52
2018-01-23T12:29:40.334Z,100593.65
2018-01-23T12:32:07.314Z,100593.80
2018-01-23T12:34:33.577Z,100597.75
2018-01-23T12:37:00.662Z,100598.58
2018-01-23T12:39:27.054Z,100589.20
2018-01-23T12:41:53.335Z,100587.27
2018-01-23T12:44:19.624Z,100586.71
2018-01-23T12:46:45.887Z,100580.66
2018-01-23T12:49:12.878Z,100579.13
2018-01-23T12:51:39.121Z,100576.28
2018-01-23T12:54:05.385Z,100578.98
2018-01-23T12:56:31.635Z,100603.28
2018-01-23T12:58:57.951Z,100599.50
2018-01-23T13:01:24.971Z,100594.58
2018-01-23T13:03:52.750Z,100595.02
2018-01-23T13:06:19.028Z,100592.11
2018-01-23T13:08:45.756Z,100586.60
2018-01-23T13:11:12.016Z,100580.75
2018-01-23T13:13:38.270Z,100586.01
2018-01-23T13:16:04.532Z,100599.59
2018-01-23T13:18:31.520Z,100580.64
2018-01-23T13:20:57.740Z,100585.45
2018-01-23T13:23:23.978Z,100586.41
2018-01-23T13:25:50.245Z,100597.36
2018-01-23T13:28:16.492Z,100593.41
2018-01-23T13:30:43.551Z,100588.31
2018-01-23T13:33:10.570Z,100596.27
2018-01-23T13:35:36.829Z,100588.53
2018-01-23T13:38:03.807Z,100592.28
2018-01-23T13:40:30.113Z,100587.05
2018-01-23T13:42:56.605Z,100592.94
2018-01-23T13:45:23.019Z,100599.64
2018-01-23T13:47:49.313Z,100591.64
2018-01-23T13:50:15.579Z,100590.41
2018-01-23T13:52:42.154Z,100586.02
2018-01-23T13:55:09.168Z,100605.80
2018-01-23T13:57:35.434Z,100603.07
2018-01-23T14:00:02.405Z,100603.39
2018-01-23T14:02:28.637Z,100606.28
2018-01-23T14:04:54.936Z,100605.16
2018-01-23T14:07:21.966Z,100597.83
2018-01-23T14:09:49.730Z,100613.44
2018-01-23T14:12:16.048Z,100619.39
2018-01-23T14:14:42.313Z,100615.05
2018-01-23T14:17:09.319Z,100622.33
2018-01-23T14:19:35.607Z,100619.05
2018-01-23T14:22:02.620Z,100622.83
2018-01-23T14:24:28.884Z,100625.75
2018-01-23T14:26:55.140Z,100611.13
2018-01-23T14:29:21.571Z,100622.69
2018-01-23T14:31:48.025Z,100620.47
2018-01-23T14:34:15.293Z,100617.59
2018-01-23T14:36:41.546Z,100618.12
2018-01-23T14:39:07.854Z,100626.81
2018-01-23T14:41:34.155Z,100622.28
2018-01-23T14:44:00.454Z,100616.89
2018-01-23T14:46:26.761Z,100616.24
2018-01-23T14:48:53.790Z,100615.16
2018-01-23T14:51:20.054Z,100615.45
2018-01-23T14:53:47.134Z,100623.19
2018-01-23T14:56:13.408Z,100627.05
2018-01-23T14:58:39.709Z,100620.21
2018-01-23T15:01:06.001Z,100626.65
2018-01-23T15:03:32.956Z,100613.63
2018-01-23T15:05:59.248Z,100611.95
2018-01-23T15:08:27.005Z,100618.62
2018-01-23T15:10:53.255Z,100617.95
2018-01-23T15:13:19.559Z,100625.08
2018-01-23T15:15:45.863Z,100621.14
2018-01-23T15:18:13.020Z,100626.19
2018-01-23T15:20:39.255Z,100629.66
2018-01-23T15:23:05.519Z,100620.77
2018-01-23T15:25:31.771Z,100622.89
2018-01-23T15:27:57.993Z,100627.89
2018-01-23T15:30:25.012Z,100626.01
2018-01-23T15:32:51.272Z,100627.85
2018-01-23T15:35:17.556Z,100627.36
2018-01-23T15:37:43.882Z,100628.34
2018-01-23T15:40:10.168Z,100635.19
2018-01-23T15:42:37.158Z,100627.46
2018-01-23T15:45:03.445Z,100633.95
2018-01-23T15:47:30.458Z,100644.53
2018-01-23T15:49:56.738Z,100638.78
2018-01-23T15:52:23.007Z,100649.27
2018-01-23T15:54:49.287Z,100650.20
2018-01-23T15:57:15.494Z,100653.38
2018-01-23T15:59:42.503Z,100657.60
2018-01-23T16:02:08.756Z,100653.06
2018-01-23T16:04:35.055Z,100659.16
2018-01-23T16:07:01.403Z,100658.91
2018-01-23T16:09:27.822Z,100658.45
2018-01-23T16:11:54.341Z,100656.47
2018-01-23T16:14:20.636Z,100656.56
2018-01-23T16:16:47.729Z,100663.02
2018-01-23T16:19:14.040Z,100671.51
2018-01-23T16:21:40.358Z,100668.70
2018-01-23T16:24:06.666Z,100667.48
2018-01-23T16:26:33.748Z,100659.27
2018-01-23T16:29:00.048Z,100675.72
2018-01-23T16:31:26.362Z,100672.23
2018-01-23T16:33:52.705Z,100657.56
2018-01-23T16:36:19.030Z,100662.84
2018-01-23T16:38:45.464Z,100666.06
2018-01-23T16:41:11.738Z,100665.36
2018-01-23T16:43:38.368Z,100668.91
2018-01-23T16:46:04.736Z,100669.18
2018-01-23T16:48:31.021Z,100672.44
2018-01-23T16:50:57.355Z,100668.49
2018-01-23T16:53:24.403Z,100670.25
2018-01-23T16:55:50.814Z,100667.41
2018-01-23T16:58:17.282Z,100665.56
2018-01-23T17:00:43.593Z,100671.16
2018-01-23T17:03:12.780Z,100669.41
2018-01-23T17:05:39.666Z,100664.23
2018-01-23T17:08:06.027Z,100669.99
2018-01-23T17:10:32.726Z,100660.45
2018-01-23T17:12:59.119Z,100664.69
2018-01-23T17:15:25.449Z,100672.47
2018-01-23T17:17:51.819Z,100662.14
2018-01-23T17:20:18.196Z,100671.16
2018-01-23T17:22:44.550Z,100662.08
2018-01-23T17:25:11.660Z,100662.66
2018-01-23T17:27:38.022Z,100662.72
2018-01-23T17:30:04.339Z,100657.16
2018-01-23T17:32:30.742Z,100662.91
2018-01-23T17:34:57.134Z,100663.91
2018-01-23T17:37:24.193Z,100664.65
2018-01-23T17:39:51.235Z,100663.84
2018-01-23T17:42:18.313Z,100660.05
2018-01-23T17:44:44.673Z,100664.16
2018-01-23T17:47:10.989Z,100668.37
2018-01-23T17:49:38.056Z,100663.67
2018-01-23T17:52:04.367Z,100670.70
2018-01-23T17:54:31.471Z,100665.14
2018-01-23T17:56:57.716Z,100662.39
2018-01-23T17:59:24.730Z,100669.92
2018-01-23T18:01:50.974Z,100656.30
2018-01-23T18:04:17.275Z,100666.00
2018-01-23T18:06:43.560Z,100663.98
2018-01-23T18:09:10.570Z,100673.48
2018-01-23T18:11:36.880Z,100677.87
2018-01-23T18:14:03.164Z,100669.02
2018-01-23T18:16:30.176Z,100673.19
2018-01-23T18:18:56.516Z,100665.18
2018-01-23T18:21:22.999Z,100664.64
2018-01-23T18:23:49.308Z,100657.95
2018-01-23T18:26:16.328Z,100668.73
2018-01-23T18:28:42.595Z,100653.64
2018-01-23T18:31:09.001Z,100658.17
2018-01-23T18:33:36.015Z,100653.91
2018-01-23T18:36:02.341Z,100657.23
2018-01-23T18:38:28.623Z,100649.64
2018-01-23T18:40:55.751Z,100645.31
2018-01-23T18:43:22.071Z,100646.01
2018-01-23T18:45:48.433Z,100650.85
2018-01-23T18:48:15.495Z,100650.43
2018-01-23T18:50:42.540Z,100654.76
2018-01-23T18:53:09.604Z,100654.52
2018-01-23T18:55:36.143Z,100660.57
2018-01-23T18:58:02.445Z,100647.42
2018-01-23T19:00:29.456Z,100657.08
2018-01-23T19:02:55.960Z,100658.95
2018-01-23T19:05:23.171Z,100654.03
2018-01-23T19:07:50.236Z,100650.42
2018-01-23T19:10:17.274Z,100646.87
2018-01-23T19:12:44.321Z,100646.94
2018-01-23T19:15:11.457Z,100647.54
2018-01-23T19:17:37.729Z,100639.50
2018-01-23T19:20:04.034Z,100639.72
2018-01-23T19:22:31.296Z,100645.33
2018-01-23T19:24:58.960Z,100642.56
2018-01-23T19:27:25.243Z,100640.58
2018-01-23T19:29:51.546Z,100632.53
2018-01-23T19:32:17.900Z,100632.02
2018-01-23T19:34:44.229Z,100625.86
2018-01-23T19:37:11.255Z,100628.78
2018-01-23T19:39:37.594Z,100625.95
2018-01-23T19:42:03.876Z,100615.88
2018-01-23T19:44:30.880Z,100619.83
2018-01-23T19:46:57.832Z,100618.75
2018-01-23T19:49:24.130Z,100616.95
2018-01-23T19:51:50.469Z,100605.56
2018-01-23T19:54:16.759Z,100606.16
2018-01-23T19:56:43.753Z,100614.05
2018-01-23T19:59:10.032Z,100605.88
2018-01-23T20:01:36.314Z,100603.22
2018-01-23T20:04:02.609Z,100601.66
2018-01-23T20:06:29.642Z,100607.09
2018-01-23T20:08:56.915Z,100608.89
2018-01-23T20:11:23.937Z,100609.47
2018-01-23T20:13:50.414Z,100610.73
2018-01-23T20:16:17.119Z,100613.67
2018-01-23T20:18:44.232Z,100615.30
2018-01-23T20:21:10.603Z,100613.20
2018-01-23T20:23:37.972Z,100604.69
2018-01-23T20:26:05.026Z,100608.17
2018-01-23T20:28:46.403Z,100617.31
2018-01-23T20:31:12.734Z,100612.80
2018-01-23T20:33:39.860Z,100602.86
2018-01-23T20:36:06.180Z,100606.80
2018-01-23T20:38:33.685Z,100607.75
2018-01-23T20:41:00.743Z,100605.56
2018-01-23T20:43:28.110Z,100592.52
2018-01-23T20:45:54.501Z,100591.20
2018-01-23T20:48:21.615Z,100594.55
2018-01-23T20:50:47.892Z,100595.14
2018-01-23T20:53:14.184Z,100586.81
2018-01-23T20:55:40.498Z,100585.89
2018-01-23T20:58:06.875Z,100589.66
2018-01-23T21:00:33.895Z,100579.37
2018-01-23T21:03:00.168Z,100574.31
2018-01-23T21:05:26.449Z,100568.55
2018-01-23T21:07:52.725Z,100572.48
2018-01-23T21:10:19.045Z,100569.82
2018-01-23T21:12:46.140Z,100575.17
2018-01-23T21:15:12.445Z,100577.91
2018-01-23T21:17:38.973Z,100571.28
2018-01-23T21:20:06.038Z,100573.62
2018-01-23T21:22:32.341Z,100568.44
2018-01-23T21:25:00.322Z,100565.53
2018-01-23T21:27:26.576Z,100563.97
2018-01-23T21:32:50.524Z,100553.39
2018-01-23T21:35:16.781Z,100551.20
2018-01-23T21:37:43.016Z,100541.80
2018-01-23T21:40:09.243Z,100544.52
2018-01-23T21:42:35.479Z,100542.11
2018-01-23T21:45:01.789Z,100533.27
2018-01-23T21:47:28.797Z,100539.56
2018-01-23T21:49:55.148Z,100542.22
2018-01-23T21:52:21.407Z,100537.88
2018-01-23T21:54:47.753Z,100533.07
2018-01-23T21:57:13.983Z,100527.97
2018-01-23T21:59:40.208Z,100523.92
2018-01-23T22:02:06.451Z,100515.25
2018-01-23T22:04:32.692Z,100513.90
2018-01-23T22:06:58.964Z,100509.05
2018-01-23T22:09:25.955Z,100509.94
2018-01-23T22:11:52.187Z,100511.75
2018-01-23T22:14:18.449Z,100509.83
2018-01-23T22:16:44.702Z,100511.25
2018-01-23T22:19:11.708Z,100510.02
2018-01-23T22:21:37.989Z,100504.91
2018-01-23T22:24:05.244Z,100509.22
2018-01-23T22:26:32.378Z,100493.92
2018-01-23T22:28:59.468Z,100502.45
2018-01-23T22:31:25.822Z,100506.48
2018-01-23T22:33:52.899Z,100512.63
2018-01-23T22:36:19.135Z,100508.48
2018-01-23T22:38:46.109Z,100515.79
2018-01-23T22:41:12.348Z,100519.54
2018-01-23T22:43:38.671Z,100516.07
2018-01-23T22:46:04.978Z,100515.30
2018-01-23T22:48:32.017Z,100519.31
2018-01-23T22:50:58.269Z,100520.73
2018-01-23T22:53:24.511Z,100515.74
2018-01-23T22:55:50.748Z,100512.25
2018-01-23T22:58:17.052Z,100510.37
2018-01-23T23:00:44.073Z,100512.75
2018-01-23T23:03:10.379Z,100499.30
2018-01-23T23:05:36.648Z,100505.48
2018-01-23T23:08:02.925Z,100498.03
2018-01-23T23:10:29.184Z,100498.45
2018-01-23T23:12:55.447Z,100496.39
2018-01-23T23:15:22.436Z,100491.96
2018-01-23T23:17:49.634Z,100491.39
2018-01-23T23:20:16.596Z,100489.77
2018-01-23T23:22:42.842Z,100484.35
2018-01-23T23:25:09.137Z,100485.09
2018-01-23T23:27:36.127Z,100485.17
2018-01-23T23:30:02.469Z,100487.50
2018-01-23T23:32:28.744Z,100478.23
2018-01-23T23:37:27.608Z,100472.52
2018-01-23T23:39:53.928Z,100461.12
2018-01-23T23:42:20.168Z,100456.58
2018-01-23T23:44:46.434Z,100461.02
2018-01-23T23:47:12.674Z,100450.85
2018-01-23T23:49:39.654Z,100457.03
2018-01-23T23:52:05.898Z,100445.70
2018-01-23T23:54:32.160Z,100440.42
2018-01-23T23:56:58.402Z,100431.98
2018-01-23T23:59:24.664Z,100433.22
